Time;durP1;ratioP1;P1;durP2;ratioP2;P2;SDS_P1;SDS_P2;PMS_P1;PMS_P2;Temp;Humidity;BMP_temperature;BMP_pressure;BME280_temperature;BME280_humidity;BME280_pressure;Samples;Min_cycle;Max_cycle;Signal;HPM_P1;HPM_P2
2021/10/20 00:00:57;;;;;;;5.03;4.63;;;;;;;7.22;100.00;98355.97;4954693;28;20215;-69
2021/10/20 00:03:26;;;;;;;5.20;4.80;;;;;;;7.16;100.00;98359.09;4946304;28;20700;-67
2021/10/20 00:05:56;;;;;;;5.50;5.03;;;;;;;7.15;100.00;98357.44;4950954;28;20234;-69
2021/10/20 00:08:24;;;;;;;5.93;5.40;;;;;;;7.11;100.00;98351.63;4953756;28;20206;-69
2021/10/20 00:10:54;;;;;;;5.87;5.37;;;;;;;7.05;100.00;98352.16;4921709;28;20225;-69
2021/10/20 00:13:22;;;;;;;5.63;5.13;;;;;;;7.02;100.00;98349.78;4953204;28;20213;-68
2021/10/20 00:15:50;;;;;;;6.00;5.50;;;;;;;7.00;100.00;98343.78;4950102;28;20738;-68
2021/10/20 00:18:19;;;;;;;5.77;5.30;;;;;;;6.98;100.00;98340.47;4937090;28;20301;-69
2021/10/20 00:20:47;;;;;;;6.03;5.53;;;;;;;6.94;100.00;98342.53;4953189;28;20586;-68
2021/10/20 00:23:16;;;;;;;6.27;5.33;;;;;;;6.94;100.00;98346.00;4952385;28;20606;-68
2021/10/20 00:25:44;;;;;;;5.67;5.17;;;;;;;6.89;100.00;98335.03;4938136;28;20227;-69
2021/10/20 00:28:13;;;;;;;6.00;5.40;;;;;;;6.90;100.00;98338.50;4935327;28;20416;-67
2021/10/20 00:30:42;;;;;;;5.77;5.27;;;;;;;6.85;100.00;98338.88;4953378;28;20209;-70
2021/10/20 00:33:10;;;;;;;6.30;5.80;;;;;;;6.84;100.00;98333.75;4942411;28;20214;-69
2021/10/20 00:35:38;;;;;;;5.57;5.17;;;;;;;6.82;100.00;98336.50;4945798;28;20610;-68
2021/10/20 00:38:06;;;;;;;5.90;5.30;;;;;;;6.77;100.00;98336.09;4952538;28;20222;-69
2021/10/20 00:40:34;;;;;;;5.50;5.03;;;;;;;6.75;100.00;98333.56;4950761;28;20210;-69
2021/10/20 00:43:02;;;;;;;6.13;5.63;;;;;;;6.73;100.00;98332.03;4918881;28;20976;-69
2021/10/20 00:45:31;;;;;;;6.17;5.57;;;;;;;6.71;100.00;98334.78;4955649;28;20234;-68
2021/10/20 00:48:00;;;;;;;6.10;5.43;;;;;;;6.71;100.00;98329.53;4941554;28;20264;-69
2021/10/20 00:50:27;;;;;;;6.20;5.70;;;;;;;6.66;100.00;98323.81;4947278;28;20217;-69
2021/10/20 00:52:56;;;;;;;5.50;5.10;;;;;;;6.64;100.00;98326.59;4951348;28;20292;-71
2021/10/20 00:55:24;;;;;;;5.70;5.30;;;;;;;6.62;100.00;98320.59;4955921;28;20252;-69
2021/10/20 00:57:52;;;;;;;7.73;6.00;;;;;;;6.58;100.00;98313.94;4921552;28;20244;-68
2021/10/20 01:00:20;;;;;;;7.97;6.50;;;;;;;6.65;100.00;98309.84;4957166;28;20289;-69
2021/10/20 01:02:49;;;;;;;6.63;5.60;;;;;;;6.60;100.00;98308.56;4948640;28;20226;-68
2021/10/20 01:05:18;;;;;;;5.80;5.40;;;;;;;6.58;100.00;98308.66;4945860;28;20225;-69
2021/10/20 01:07:46;;;;;;;5.43;5.03;;;;;;;6.53;100.00;98302.97;4954094;28;20209;-68
2021/10/20 01:10:15;;;;;;;5.77;5.27;;;;;;;6.49;100.00;98293.66;4952006;28;20715;-69
2021/10/20 01:12:44;;;;;;;6.07;5.57;;;;;;;6.46;100.00;98289.50;4922473;28;20701;-68
2021/10/20 01:15:13;;;;;;;5.53;4.97;;;;;;;6.42;100.00;98290.69;4949855;28;20984;-69
2021/10/20 01:17:41;;;;;;;5.57;5.17;;;;;;;6.39;100.00;98293.59;4954138;28;20647;-68
2021/10/20 01:20:11;;;;;;;6.07;5.57;;;;;;;6.34;100.00;98287.88;4937026;28;20897;-69
2021/10/20 01:22:41;;;;;;;5.60;5.07;;;;;;;6.33;100.00;98279.19;4952201;28;20238;-69
2021/10/20 01:25:10;;;;;;;6.73;5.53;;;;;;;6.32;100.00;98266.13;4950260;28;20647;-69
2021/10/20 01:27:38;;;;;;;4.77;4.37;;;;;;;6.28;100.00;98265.56;4950728;28;20222;-68
2021/10/20 01:30:08;;;;;;;5.43;5.03;;;;;;;6.33;100.00;98267.78;4929616;28;20300;-69
2021/10/20 01:32:36;;;;;;;5.73;5.23;;;;;;;6.25;100.00;98260.56;4915476;28;20954;-70
2021/10/20 01:35:05;;;;;;;5.33;4.93;;;;;;;6.21;100.00;98254.72;4950071;28;20465;-69
2021/10/20 01:37:33;;;;;;;5.73;5.23;;;;;;;6.20;100.00;98257.47;4937586;28;20217;-67
2021/10/20 01:40:04;;;;;;;4.73;4.43;;;;;;;6.17;100.00;98245.41;4953578;28;20207;-69
2021/10/20 01:42:32;;;;;;;6.23;5.50;;;;;;;6.16;100.00;98242.91;4940473;28;21704;-69
2021/10/20 01:45:00;;;;;;;5.83;5.33;;;;;;;6.13;100.00;98237.91;4951872;28;20221;-70
2021/10/20 01:47:28;;;;;;;7.67;5.30;;;;;;;6.16;100.00;98227.97;4916871;28;20774;-68
2021/10/20 01:49:56;;;;;;;5.07;4.67;;;;;;;6.17;100.00;98227.00;4953658;28;20214;-69
2021/10/20 01:52:24;;;;;;;4.83;4.50;;;;;;;6.11;100.00;98232.78;4949635;28;20210;-68
2021/10/20 01:54:52;;;;;;;6.17;5.20;;;;;;;6.19;100.00;98226.84;4952761;28;20233;-68
2021/10/20 01:57:21;;;;;;;4.93;4.53;;;;;;;6.20;100.00;98226.75;4946638;28;20210;-68
2021/10/20 01:59:49;;;;;;;5.67;4.60;;;;;;;6.21;100.00;98217.03;4939549;28;20221;-69
2021/10/20 02:02:19;;;;;;;5.17;4.83;;;;;;;6.33;100.00;98200.22;4930413;28;20764;-68
2021/10/20 02:04:47;;;;;;;5.53;5.13;;;;;;;6.38;100.00;98205.06;4947366;28;20325;-69
2021/10/20 02:07:15;;;;;;;5.70;5.23;;;;;;;6.43;100.00;98205.50;4949013;28;20229;-68
2021/10/20 02:09:43;;;;;;;5.70;5.20;;;;;;;6.44;100.00;98195.81;4952759;28;20639;-69
2021/10/20 02:12:11;;;;;;;4.83;4.53;;;;;;;6.46;100.00;98189.47;4950811;28;20213;-68
2021/10/20 02:14:41;;;;;;;5.67;5.13;;;;;;;6.45;100.00;98184.31;4945656;28;20233;-69
2021/10/20 02:17:09;;;;;;;4.73;4.40;;;;;;;6.43;100.00;98181.78;4953333;28;20214;-68
2021/10/20 02:19:37;;;;;;;5.33;4.93;;;;;;;6.50;100.00;98193.50;4921601;28;20586;-69
2021/10/20 02:22:05;;;;;;;5.90;5.33;;;;;;;6.47;100.00;98185.84;4949385;28;20231;-68
2021/10/20 02:24:34;;;;;;;5.30;4.90;;;;;;;6.49;100.00;98177.81;4954334;28;20460;-69
2021/10/20 02:27:02;;;;;;;4.93;4.53;;;;;;;6.42;100.00;98182.75;4957279;28;20210;-68
2021/10/20 02:29:31;;;;;;;4.47;4.17;;;;;;;6.39;100.00;98169.88;4940483;28;20309;-69
2021/10/20 02:32:01;;;;;;;5.10;4.70;;;;;;;6.35;100.00;98174.59;4938622;28;20242;-68
2021/10/20 02:34:29;;;;;;;5.40;5.00;;;;;;;6.31;100.00;98181.09;4921149;28;20327;-68
2021/10/20 02:36:57;;;;;;;5.40;5.00;;;;;;;6.24;100.00;98185.19;4949483;28;20218;-69
2021/10/20 02:39:25;;;;;;;5.80;5.30;;;;;;;6.22;100.00;98172.16;4953542;28;20207;-72
2021/10/20 02:41:53;;;;;;;5.20;4.90;;;;;;;6.27;100.00;98169.16;4955254;28;20206;-69
2021/10/20 02:44:21;;;;;;;5.00;4.50;;;;;;;6.15;100.00;98164.94;4944386;28;20520;-70
2021/10/20 02:46:49;;;;;;;5.30;4.87;;;;;;;6.15;100.00;98160.50;4940648;28;20567;-69
2021/10/20 02:49:19;;;;;;;5.50;5.07;;;;;;;6.05;100.00;98160.47;4921215;28;20214;-72
2021/10/20 02:51:47;;;;;;;5.07;4.67;;;;;;;6.05;100.00;98162.25;4950534;28;20213;-69
2021/10/20 02:54:15;;;;;;;5.07;4.67;;;;;;;5.97;100.00;98154.16;4952061;28;20265;-71
2021/10/20 02:56:43;;;;;;;4.93;4.63;;;;;;;5.92;100.00;98154.56;4956932;28;20298;-70
2021/10/20 02:59:11;;;;;;;4.67;4.17;;;;;;;5.88;100.00;98155.78;4933604;28;20326;-70
2021/10/20 03:01:39;;;;;;;5.00;4.60;;;;;;;5.87;100.00;98161.97;4945933;28;20233;-70
2021/10/20 03:04:07;;;;;;;6.27;4.97;;;;;;;5.83;100.00;98155.31;4919933;28;20535;-70
2021/10/20 03:06:36;;;;;;;5.33;4.93;;;;;;;5.80;100.00;98154.59;4955049;28;20207;-71
2021/10/20 03:09:05;;;;;;;5.03;4.63;;;;;;;5.74;100.00;98146.44;4947414;28;20214;-69
2021/10/20 03:11:33;;;;;;;5.47;4.97;;;;;;;5.71;100.00;98144.88;4955994;28;20213;-70
2021/10/20 03:14:01;;;;;;;6.10;4.67;;;;;;;5.67;100.00;98146.09;4953701;28;20233;-69
2021/10/20 03:16:29;;;;;;;4.87;4.57;;;;;;;5.64;100.00;98149.81;4956090;28;20638;-69
2021/10/20 03:18:57;;;;;;;5.17;4.77;;;;;;;5.61;100.00;98151.88;4942625;28;20229;-69
2021/10/20 03:21:25;;;;;;;5.07;4.73;;;;;;;5.60;100.00;98139.69;4925177;28;20210;-70
2021/10/20 03:23:54;;;;;;;6.87;6.17;;;;;;;5.58;100.00;98144.25;4953868;28;20328;-69
2021/10/20 03:26:22;;;;;;;5.83;5.33;;;;;;;5.66;100.00;98141.81;4953507;28;20760;-71
2021/10/20 03:28:50;;;;;;;5.47;5.07;;;;;;;5.59;100.00;98149.38;4955648;28;20210;-69
2021/10/20 03:31:18;;;;;;;5.37;4.97;;;;;;;5.57;100.00;98143.41;4956311;28;20227;-68
2021/10/20 03:33:46;;;;;;;4.40;4.10;;;;;;;5.57;100.00;98138.16;4948081;28;20289;-69
2021/10/20 03:36:14;;;;;;;5.17;4.80;;;;;;;5.52;100.00;98140.31;4921348;28;20766;-70
2021/10/20 03:38:43;;;;;;;5.87;5.37;;;;;;;5.62;100.00;98135.13;4954842;28;20210;-70
2021/10/20 03:41:12;;;;;;;5.03;4.63;;;;;;;5.50;100.00;98132.59;4919185;28;20709;-68
2021/10/20 03:43:41;;;;;;;5.33;4.83;;;;;;;5.47;100.00;98129.38;4943348;28;20313;-70
2021/10/20 03:46:09;;;;;;;4.70;4.40;;;;;;;5.42;100.00;98127.13;4948744;28;20230;-68
2021/10/20 03:48:37;;;;;;;4.83;4.43;;;;;;;5.38;100.00;98122.25;4941458;28;20333;-70
2021/10/20 03:51:05;;;;;;;5.17;4.77;;;;;;;5.33;100.00;98122.63;4956088;28;20240;-68
2021/10/20 03:53:34;;;;;;;5.13;4.73;;;;;;;5.29;100.00;98115.97;4956021;28;20455;-67
2021/10/20 03:56:02;;;;;;;5.33;4.93;;;;;;;5.25;100.00;98106.66;4924243;28;20234;-67
2021/10/20 03:58:31;;;;;;;4.67;4.27;;;;;;;5.21;100.00;98100.81;4952942;28;20221;-67
2021/10/20 04:00:59;;;;;;;5.50;5.10;;;;;;;5.22;100.00;98099.88;4953929;28;20237;-66
2021/10/20 04:03:27;;;;;;;6.37;5.40;;;;;;;5.26;100.00;98093.38;4941583;28;20222;-67
2021/10/20 04:05:56;;;;;;;5.50;5.10;;;;;;;5.26;100.00;98095.19;4956111;28;20237;-67
2021/10/20 04:08:24;;;;;;;5.00;4.70;;;;;;;5.30;100.00;98091.34;4952131;28;20789;-69
2021/10/20 04:10:52;;;;;;;4.93;4.53;;;;;;;5.18;100.00;98094.03;4921808;28;20218;-69
2021/10/20 04:13:20;;;;;;;5.83;5.33;;;;;;;5.10;100.00;98091.19;4950044;28;20424;-68
2021/10/20 04:15:50;;;;;;;6.13;5.57;;;;;;;5.08;100.00;98082.63;4955342;28;20397;-69
2021/10/20 04:18:18;;;;;;;5.57;5.07;;;;;;;5.06;100.00;98085.38;4939514;28;20210;-64
2021/10/20 04:20:46;;;;;;;5.90;5.40;;;;;;;4.98;100.00;98085.19;4955362;28;20205;-67
2021/10/20 04:23:14;;;;;;;5.20;4.80;;;;;;;4.93;100.00;98085.56;4949411;28;20745;-65
2021/10/20 04:25:42;;;;;;;5.10;4.70;;;;;;;4.89;100.00;98078.88;4952234;28;20260;-67
2021/10/20 04:28:10;;;;;;;5.40;5.00;;;;;;;4.85;100.00;98077.47;4917659;28;20281;-66
2021/10/20 04:30:39;;;;;;;5.33;4.83;;;;;;;4.83;100.00;98076.78;4953934;28;20306;-67
2021/10/20 04:33:08;;;;;;;5.00;4.70;;;;;;;4.82;100.00;98076.88;4950969;28;20210;-66
2021/10/20 04:35:36;;;;;;;6.40;5.90;;;;;;;4.86;100.00;98076.53;4948866;28;20241;-67
2021/10/20 04:38:04;;;;;;;8.20;7.40;;;;;;;4.90;100.00;98077.09;4953227;28;20218;-66
2021/10/20 04:40:34;;;;;;;6.57;6.03;;;;;;;4.90;100.00;98072.69;4951610;28;20243;-67
2021/10/20 04:43:02;;;;;;;9.30;8.33;;;;;;;4.99;100.00;98080.75;4921175;28;20237;-66
2021/10/20 04:45:30;;;;;;;6.93;6.43;;;;;;;5.02;100.00;98078.72;4940353;28;20770;-67
2021/10/20 04:47:58;;;;;;;5.87;5.37;;;;;;;5.04;100.00;98078.56;4956631;28;20210;-68
2021/10/20 04:50:27;;;;;;;5.67;5.17;;;;;;;5.04;100.00;98081.19;4929557;28;20860;-69
2021/10/20 04:52:55;;;;;;;6.30;5.70;;;;;;;4.97;100.00;98072.16;4952941;28;20222;-67
2021/10/20 04:55:23;;;;;;;9.43;7.90;;;;;;;4.89;100.00;98057.88;4952689;28;20229;-66
2021/10/20 04:57:52;;;;;;;7.87;7.17;;;;;;;4.81;100.00;98055.06;4921856;28;20218;-68
2021/10/20 05:00:21;;;;;;;7.17;6.57;;;;;;;4.72;100.00;98055.78;4948249;28;20265;-65
2021/10/20 05:02:49;;;;;;;6.80;6.13;;;;;;;4.70;100.00;98044.59;4951469;28;20213;-68
2021/10/20 05:05:17;;;;;;;6.73;6.13;;;;;;;4.64;100.00;98046.75;4928394;28;21061;-71
2021/10/20 05:07:48;;;;;;;5.50;5.03;;;;;;;4.56;100.00;98035.22;4952229;28;20638;-68
2021/10/20 05:10:16;;;;;;;6.67;6.13;;;;;;;4.52;100.00;98037.25;4949903;28;20225;-66
2021/10/20 05:12:45;;;;;;;6.40;5.77;;;;;;;4.48;100.00;98027.97;4914693;28;20237;-67
2021/10/20 05:15:13;;;;;;;6.87;6.27;;;;;;;4.55;100.00;98034.38;4953781;28;20230;-66
2021/10/20 05:17:43;;;;;;;6.53;5.83;;;;;;;4.52;100.00;98029.38;4952211;28;20206;-66
2021/10/20 05:20:12;;;;;;;6.13;5.63;;;;;;;4.49;100.00;98029.63;4940241;28;20221;-68
2021/10/20 05:22:41;;;;;;;5.63;5.13;;;;;;;4.54;100.00;98031.88;4951898;28;20527;-67
2021/10/20 05:25:12;;;;;;;8.30;7.50;;;;;;;4.72;100.00;98032.16;4952710;28;20230;-67
2021/10/20 05:27:40;;;;;;;6.47;5.97;;;;;;;4.71;100.00;98033.13;4930519;28;20210;-67
2021/10/20 05:30:10;;;;;;;6.90;6.10;;;;;;;4.67;100.00;98023.84;4943216;28;20308;-68
2021/10/20 05:32:38;;;;;;;6.37;5.77;;;;;;;4.92;100.00;98026.13;4952098;28;20221;-66
2021/10/20 05:35:06;;;;;;;6.30;5.80;;;;;;;4.87;100.00;98022.19;4924560;28;20293;-71
2021/10/20 05:37:34;;;;;;;5.60;5.10;;;;;;;4.78;100.00;98024.63;4954083;28;20210;-67
2021/10/20 05:40:03;;;;;;;5.90;5.30;;;;;;;4.71;100.00;98020.84;4933357;28;20321;-70
2021/10/20 05:42:32;;;;;;;5.47;4.97;;;;;;;4.73;100.00;98015.44;4951508;28;20206;-68
2021/10/20 05:45:00;;;;;;;6.77;5.17;;;;;;;4.89;100.00;98010.63;4919435;28;20424;-70
2021/10/20 05:47:28;;;;;;;5.87;5.43;;;;;;;4.81;100.00;98015.66;4914808;28;21752;-67
2021/10/20 05:49:56;;;;;;;6.73;6.13;;;;;;;4.83;100.00;98011.13;4949584;28;20237;-68
2021/10/20 05:52:24;;;;;;;7.23;6.63;;;;;;;4.79;100.00;98009.72;4940835;28;20332;-67
2021/10/20 05:54:52;;;;;;;6.90;6.30;;;;;;;4.87;100.00;98011.69;4953649;28;20226;-67
2021/10/20 05:57:22;;;;;;;6.23;5.73;;;;;;;4.88;100.00;98019.44;4951567;28;20314;-69
2021/10/20 05:59:51;;;;;;;8.40;7.63;;;;;;;4.86;100.00;98016.13;4941762;28;20206;-69
2021/10/20 06:02:19;;;;;;;7.13;6.43;;;;;;;4.98;100.00;98018.69;4917991;28;20710;-71
2021/10/20 06:04:47;;;;;;;7.13;6.53;;;;;;;5.06;100.00;98021.50;4948719;28;20241;-68
2021/10/20 06:07:15;;;;;;;7.37;6.27;;;;;;;5.06;100.00;98021.50;4952012;28;20217;-68
2021/10/20 06:09:43;;;;;;;7.20;6.60;;;;;;;5.09;100.00;98021.22;4955757;28;20207;-70
2021/10/20 06:12:11;;;;;;;6.73;6.23;;;;;;;5.00;100.00;98020.22;4952921;28;20280;-68
2021/10/20 06:14:39;;;;;;;7.73;7.13;;;;;;;5.13;100.00;98020.03;4945240;28;20602;-69
2021/10/20 06:17:09;;;;;;;8.03;7.23;;;;;;;5.19;100.00;98013.41;4930649;28;20210;-70
2021/10/20 06:19:37;;;;;;;6.97;6.27;;;;;;;5.13;100.00;98017.41;4948398;28;20202;-70
2021/10/20 06:22:05;;;;;;;7.00;6.40;;;;;;;5.22;100.00;98015.78;4954258;28;20232;-68
2021/10/20 06:24:33;;;;;;;6.53;5.93;;;;;;;5.11;100.00;98018.50;4956056;28;20452;-70
2021/10/20 06:27:01;;;;;;;5.97;5.47;;;;;;;5.21;100.00;98014.97;4956634;28;20206;-69
2021/10/20 06:29:32;;;;;;;6.97;6.37;;;;;;;5.43;100.00;98022.81;4943248;28;20533;-71
2021/10/20 06:32:01;;;;;;;6.73;6.13;;;;;;;5.33;100.00;98017.50;4955366;28;20435;-69
2021/10/20 06:34:33;;;;;;;7.57;6.87;;;;;;;5.40;100.00;98025.72;4924108;28;20620;-71
2021/10/20 06:37:02;;;;;;;7.17;6.57;;;;;;;5.55;100.00;98015.69;4952039;28;20203;-69
2021/10/20 06:39:30;;;;;;;6.90;6.30;;;;;;;5.54;100.00;98014.03;4953906;28;20218;-71
2021/10/20 06:41:58;;;;;;;7.00;6.43;;;;;;;5.59;100.00;98010.03;4955489;28;20214;-69
2021/10/20 06:44:26;;;;;;;7.80;7.10;;;;;;;5.55;100.00;98011.25;4943882;28;21561;-67
2021/10/20 06:46:56;;;;;;;6.00;5.60;;;;;;;5.63;100.00;98011.41;4957266;28;20198;-69
2021/10/20 06:49:24;;;;;;;7.10;6.57;;;;;;;5.64;100.00;98018.34;4922451;28;20747;-70
2021/10/20 06:51:53;;;;;;;7.57;6.90;;;;;;;5.71;100.00;98015.22;4956806;28;20575;-71
2021/10/20 06:54:21;;;;;;;9.17;8.20;;;;;;;5.82;100.00;98023.00;4953142;28;20698;-72
2021/10/20 06:56:51;;;;;;;7.80;7.00;;;;;;;5.92;100.00;98015.16;4955741;28;20214;-71
2021/10/20 06:59:20;;;;;;;7.03;6.33;;;;;;;6.01;100.00;98021.41;4945108;28;20325;-71
2021/10/20 07:01:48;;;;;;;7.03;6.40;;;;;;;6.13;100.00;98015.09;4954849;28;20273;-70
2021/10/20 07:04:17;;;;;;;7.90;7.20;;;;;;;6.26;100.00;98009.59;4920551;28;20495;-68
2021/10/20 07:06:49;;;;;;;9.60;6.60;;;;;;;6.45;100.00;98007.94;4956137;28;20670;-69
2021/10/20 07:09:18;;;;;;;7.07;6.50;;;;;;;6.52;100.00;98006.41;4954294;28;20433;-69
2021/10/20 07:11:46;;;;;;;6.23;5.73;;;;;;;6.63;100.00;97995.75;4957265;28;20210;-73
2021/10/20 07:14:14;;;;;;;6.70;6.20;;;;;;;6.74;100.00;98004.47;4946220;28;20210;-70
2021/10/20 07:16:42;;;;;;;6.67;6.07;;;;;;;6.88;100.00;98008.50;4953497;28;20214;-69
2021/10/20 07:19:10;;;;;;;6.97;6.43;;;;;;;7.03;100.00;98008.88;4952028;28;20206;-71
2021/10/20 07:21:39;;;;;;;7.10;6.40;;;;;;;7.17;100.00;98003.16;4926441;28;20682;-70
2021/10/20 07:24:07;;;;;;;5.90;5.40;;;;;;;7.38;100.00;98000.34;4949445;28;20218;-67
2021/10/20 07:26:36;;;;;;;6.40;5.90;;;;;;;7.50;100.00;98002.78;4953445;28;20319;-69
2021/10/20 07:29:04;;;;;;;6.83;6.07;;;;;;;7.60;100.00;97997.50;4953646;28;20213;-69
2021/10/20 07:31:32;;;;;;;7.00;6.30;;;;;;;7.82;100.00;97985.72;4942849;28;20210;-71
2021/10/20 07:34:01;;;;;;;6.83;6.13;;;;;;;7.97;100.00;97988.72;4951929;28;20572;-69
2021/10/20 07:36:29;;;;;;;5.67;5.17;;;;;;;8.20;100.00;97989.13;4922375;28;21177;-68
2021/10/20 07:38:57;;;;;;;6.33;5.30;;;;;;;8.34;100.00;97977.22;4957474;28;20218;-69
2021/10/20 07:41:25;;;;;;;6.90;6.10;;;;;;;8.54;100.00;97980.56;4955721;28;20427;-69
2021/10/20 07:43:55;;;;;;;6.33;5.83;;;;;;;8.78;100.00;97973.84;4958925;28;20214;-69
2021/10/20 07:46:23;;;;;;;6.07;5.67;;;;;;;8.96;100.00;97968.53;4944792;28;20257;-71
2021/10/20 07:48:51;;;;;;;5.87;5.37;;;;;;;9.10;100.00;97961.00;4958078;28;20634;-69
2021/10/20 07:51:19;;;;;;;5.63;5.13;;;;;;;9.25;100.00;97963.91;4953138;28;20233;-71
2021/10/20 07:53:47;;;;;;;6.80;5.37;;;;;;;9.39;100.00;97962.50;4924276;28;20222;-71
2021/10/20 07:56:15;;;;;;;6.83;4.23;;;;;;;9.50;100.00;97958.78;4918581;28;20237;-71
2021/10/20 07:58:43;;;;;;;5.73;5.00;;;;;;;9.60;100.00;97969.22;4952558;28;20215;-69
2021/10/20 08:01:13;;;;;;;5.47;5.07;;;;;;;9.65;100.00;97965.13;4953274;28;20214;-69
2021/10/20 08:03:41;;;;;;;5.87;5.37;;;;;;;9.83;100.00;97965.03;4940456;28;20647;-68
2021/10/20 08:06:09;;;;;;;6.10;4.90;;;;;;;9.98;100.00;97967.88;4956144;28;20237;-70
2021/10/20 08:08:37;;;;;;;5.43;5.00;;;;;;;10.21;100.00;97964.63;4949090;28;20219;-71
2021/10/20 08:11:07;;;;;;;5.47;4.97;;;;;;;10.34;100.00;97963.34;4923636;28;20419;-69
2021/10/20 08:13:35;;;;;;;6.57;5.47;;;;;;;10.49;100.00;97956.41;4948846;28;20230;-69
2021/10/20 08:16:04;;;;;;;5.53;4.90;;;;;;;10.65;100.00;97955.59;4952662;28;20592;-70
2021/10/20 08:18:33;;;;;;;6.27;5.73;;;;;;;11.00;100.00;97952.78;4949077;28;20206;-68
2021/10/20 08:21:01;;;;;;;4.70;4.30;;;;;;;11.31;100.00;97945.91;4944275;28;20513;-70
2021/10/20 08:23:32;;;;;;;5.03;4.30;;;;;;;11.50;100.00;97940.22;4951975;28;20638;-70
2021/10/20 08:26:00;;;;;;;5.30;4.80;;;;;;;11.53;100.00;97939.06;4919105;28;21674;-71
2021/10/20 08:28:28;;;;;;;5.67;5.17;;;;;;;11.71;100.00;97936.16;4953355;28;20213;-67
2021/10/20 08:30:57;;;;;;;4.87;4.43;;;;;;;11.63;100.00;97929.06;4954462;28;20519;-69
2021/10/20 08:33:25;;;;;;;5.37;4.97;;;;;;;11.90;100.00;97923.44;4952841;28;20214;-70
2021/10/20 08:35:54;;;;;;;5.00;4.67;;;;;;;11.81;100.00;97928.00;4939385;28;20230;-70
2021/10/20 08:38:22;;;;;;;4.20;3.90;;;;;;;11.86;100.00;97926.44;4956048;28;20607;-68
2021/10/20 08:40:51;;;;;;;4.67;4.20;;;;;;;12.08;100.00;97916.09;4923114;28;20793;-70
2021/10/20 08:43:20;;;;;;;4.50;4.20;;;;;;;12.24;100.00;97916.97;4951091;28;20674;-69
2021/10/20 08:45:50;;;;;;;4.47;4.17;;;;;;;12.27;100.00;97922.78;4950942;28;20235;-70
2021/10/20 08:48:21;;;;;;;5.60;5.10;;;;;;;12.44;100.00;97910.19;4956076;28;20594;-70
2021/10/20 08:50:51;;;;;;;4.33;4.00;;;;;;;12.42;100.00;97896.25;4941285;28;20312;-69
2021/10/20 08:53:21;;;;;;;4.83;4.13;;;;;;;12.45;100.00;97882.59;4956536;28;20206;-69
2021/10/20 08:55:50;;;;;;;4.40;4.00;;;;;;;12.74;100.00;97882.84;4946369;28;20233;-70
2021/10/20 08:58:19;;;;;;;4.20;3.80;;;;;;;12.85;100.00;97879.75;4925917;28;20217;-69
2021/10/20 09:00:47;;;;;;;4.10;3.70;;;;;;;12.89;100.00;97874.91;4946859;28;20206;-69
2021/10/20 09:03:16;;;;;;;4.73;4.40;;;;;;;13.05;100.00;97875.72;4957392;28;20300;-69
2021/10/20 09:05:44;;;;;;;4.63;4.23;;;;;;;13.18;100.00;97876.75;4941273;28;20621;-72
2021/10/20 09:08:13;;;;;;;5.13;4.33;;;;;;;13.36;100.00;97872.91;4947903;28;20297;-67
2021/10/20 09:10:45;;;;;;;4.40;4.00;;;;;;;13.59;100.00;97871.97;4949779;28;20214;-75
2021/10/20 09:13:14;;;;;;;4.97;4.57;;;;;;;13.91;100.00;97867.22;4926885;28;20229;-73
2021/10/20 09:15:42;;;;;;;4.90;4.27;;;;;;;13.81;100.00;97862.19;4948984;28;20236;-73
2021/10/20 09:18:12;;;;;;;4.73;4.20;;;;;;;13.96;100.00;97867.47;4952632;28;20687;-76
2021/10/20 09:20:41;;;;;;;7.23;4.30;;;;;;;14.15;100.00;97874.00;4948039;28;20618;-73
2021/10/20 09:23:12;;;;;;;4.37;4.07;;;;;;;14.11;100.00;97871.94;4952672;28;20206;-75
2021/10/20 09:25:44;;;;;;;4.67;3.40;;;;;;;14.04;100.00;97885.19;4951009;28;20495;-72
2021/10/20 09:28:14;;;;;;;4.87;4.20;;;;;;;14.27;100.00;97889.50;4925528;28;20218;-74
2021/10/20 09:30:43;;;;;;;5.50;3.90;;;;;;;14.43;100.00;97875.09;4953258;28;20639;-74
2021/10/20 09:33:11;;;;;;;4.00;3.70;;;;;;;14.59;100.00;97877.47;4954897;28;20277;-73
2021/10/20 09:35:39;;;;;;;4.00;3.70;;;;;;;14.68;100.00;97872.00;4950112;28;20253;-75
2021/10/20 09:38:08;;;;;;;3.73;3.43;;;;;;;14.58;100.00;97875.84;4950306;28;20210;-73
2021/10/20 09:40:39;;;;;;;4.20;3.80;;;;;;;14.72;100.00;97857.28;4952699;28;20510;-72
2021/10/20 09:43:12;;;;;;;5.83;3.93;;;;;;;14.84;100.00;97849.59;4922444;28;20809;-72
2021/10/20 09:45:41;;;;;;;4.30;3.90;;;;;;;14.95;100.00;97832.22;4948999;28;20222;-72
2021/10/20 09:48:15;;;;;;;4.00;3.60;;;;;;;15.10;100.00;97819.56;4955503;28;20263;-73
2021/10/20 09:50:59;;;;;;;4.47;4.10;;;;;;;15.26;100.00;97823.75;4950428;28;20571;-73
2021/10/20 09:53:28;;;;;;;3.87;3.57;;;;;;;15.41;100.00;97823.59;4943244;28;20210;-73
2021/10/20 09:55:59;;;;;;;4.87;3.20;;;;;;;15.58;100.00;97818.75;4947562;28;20573;-74
2021/10/20 09:58:31;;;;;;;4.17;3.80;;;;;;;15.46;100.00;97807.00;4952056;28;20214;-74
2021/10/20 10:01:01;;;;;;;3.80;3.60;;;;;;;15.86;100.00;97808.94;4937092;28;21103;-72
2021/10/20 10:03:30;;;;;;;3.50;3.30;;;;;;;15.99;100.00;97802.81;4918301;28;20210;-73
2021/10/20 10:05:59;;;;;;;4.30;3.57;;;;;;;15.95;100.00;97798.91;4956238;28;20238;-72
2021/10/20 10:08:27;;;;;;;4.13;3.70;;;;;;;16.12;100.00;97800.19;4955980;28;20216;-72
2021/10/20 10:10:56;;;;;;;4.07;3.70;;;;;;;16.09;100.00;97776.50;4943868;28;20211;-74
2021/10/20 10:13:27;;;;;;;3.90;3.50;;;;;;;16.12;100.00;97761.94;4949331;28;20233;-70
2021/10/20 10:15:58;;;;;;;3.60;3.37;;;;;;;16.30;100.00;97761.31;4949778;28;20352;-70
2021/10/20 10:18:26;;;;;;;4.43;3.30;;;;;;;16.49;100.00;97765.00;4920512;28;20249;-70
2021/10/20 10:20:54;;;;;;;3.07;2.70;;;;;;;16.73;100.00;97766.19;4952215;28;20209;-73
2021/10/20 10:23:24;;;;;;;3.57;3.13;;;;;;;16.81;100.00;97757.13;4943114;28;20219;-74
2021/10/20 10:25:58;;;;;;;4.53;2.80;;;;;;;17.03;100.00;97748.81;4950683;28;20222;-69
2021/10/20 10:28:28;;;;;;;3.27;3.07;;;;;;;17.09;100.00;97747.16;4951760;28;20266;-74
2021/10/20 10:31:03;;;;;;;5.57;3.03;;;;;;;16.93;100.00;97731.34;4940995;28;20280;-75
2021/10/20 10:33:33;;;;;;;3.47;3.17;;;;;;;17.13;100.00;97737.69;4921193;28;24693;-73
2021/10/20 10:36:13;;;;;;;3.93;3.63;;;;;;;17.29;100.00;97739.03;4952944;28;20272;-76
2021/10/20 10:38:43;;;;;;;3.33;3.07;;;;;;;17.44;100.00;97739.59;4951660;28;20828;-77
2021/10/20 10:41:24;;;;;;;2.80;2.60;;;;;;;17.35;85.37;97735.50;4953266;28;20225;-74
2021/10/20 10:44:15;;;;;;;2.33;2.23;;;;;;;17.49;91.41;97738.94;4953295;28;20214;-75
2021/10/20 10:46:55;;;;;;;2.87;2.60;;;;;;;17.55;90.60;97732.72;4941858;28;20234;-74
2021/10/20 10:49:28;;;;;;;2.93;2.73;;;;;;;17.92;96.87;97740.91;4921160;28;22100;-74
2021/10/20 10:52:07;;;;;;;2.90;2.70;;;;;;;18.13;80.92;97717.50;4954076;28;20229;-75
2021/10/20 10:54:36;;;;;;;2.90;2.70;;;;;;;18.04;79.84;97716.13;4954411;28;20221;-73
2021/10/20 10:57:12;;;;;;;2.83;2.50;;;;;;;18.46;74.08;97712.84;4949465;28;20202;-73
2021/10/20 10:59:43;;;;;;;2.70;2.60;;;;;;;18.34;76.52;97716.28;4954316;28;20214;-71
2021/10/20 11:02:48;;;;;;;3.23;2.70;;;;;;;18.78;77.86;97704.66;4938535;28;20212;-69
2021/10/20 11:05:18;;;;;;;2.37;2.27;;;;;;;18.73;72.47;97701.84;4916454;28;20315;-72
2021/10/20 11:07:52;;;;;;;5.03;3.00;;;;;;;18.61;68.74;97712.50;4953444;28;20222;-70
2021/10/20 11:10:21;;;;;;;2.53;2.43;;;;;;;18.66;73.55;97696.53;4952917;28;20425;-70
2021/10/20 11:12:50;;;;;;;2.23;2.13;;;;;;;18.85;68.59;97696.53;4955227;28;20210;-70
2021/10/20 11:15:19;;;;;;;2.37;2.27;;;;;;;18.75;68.33;97694.38;4954368;28;20360;-69
2021/10/20 11:17:49;;;;;;;2.33;2.23;;;;;;;18.98;68.13;97693.72;4948327;28;20309;-71
2021/10/20 11:20:19;;;;;;;2.37;2.27;;;;;;;18.80;62.79;97686.47;4922718;28;20222;-72
2021/10/20 11:22:49;;;;;;;2.60;2.40;;;;;;;18.85;68.00;97685.81;4956802;28;20313;-69
2021/10/20 11:25:18;;;;;;;2.50;2.40;;;;;;;18.77;63.67;97674.34;4954539;28;20339;-72
2021/10/20 11:27:48;;;;;;;1.83;1.73;;;;;;;19.08;64.56;97659.09;4957681;28;20240;-70
2021/10/20 11:30:17;;;;;;;2.90;2.60;;;;;;;19.12;62.08;97672.88;4952223;28;20395;-69
2021/10/20 11:32:46;;;;;;;2.40;2.30;;;;;;;19.08;64.96;97677.88;4948016;28;20210;-69
2021/10/20 11:35:17;;;;;;;2.97;2.77;;;;;;;18.77;59.35;97687.75;4952654;28;20238;-70
2021/10/20 11:37:54;;;;;;;2.80;2.60;;;;;;;18.71;59.49;97680.56;4926098;28;20214;-69
2021/10/20 11:40:22;;;;;;;2.10;2.00;;;;;;;18.86;59.76;97687.44;4955013;28;20304;-70